Time;durP1;ratioP1;P1;durP2;ratioP2;P2;SDS_P1;SDS_P2;PMS_P1;PMS_P2;Temp;Humidity;BMP_temperature;BMP_pressure;BME280_temperature;BME280_humidity;BME280_pressure;Samples;Min_cycle;Max_cycle;Signal;HPM_P1;HPM_P2
2022/09/19 00:01:56;;;;;;;6.93;2.63;;;9.50;99.90;;;;;;4917491;29;20291;-80
2022/09/19 00:04:30;;;;;;;8.07;2.97;;;9.40;99.90;;;;;;4917356;29;20237;-80
2022/09/19 00:06:58;;;;;;;9.03;2.27;;;9.40;99.90;;;;;;4917824;29;20196;-81
2022/09/19 00:09:29;;;;;;;5.20;2.50;;;9.40;99.90;;;;;;4917469;29;20207;-80
2022/09/19 00:11:56;;;;;;;6.03;2.70;;;9.30;99.90;;;;;;4918386;29;20196;-80
2022/09/19 00:14:27;;;;;;;5.83;2.57;;;9.40;99.90;;;;;;4917252;29;20298;-79
2022/09/19 00:16:57;;;;;;;5.43;2.57;;;9.40;99.90;;;;;;4917196;29;20213;-81
2022/09/19 00:19:28;;;;;;;6.73;3.13;;;9.30;99.90;;;;;;4917309;29;20194;-80
2022/09/19 00:21:57;;;;;;;5.50;2.40;;;9.30;99.90;;;;;;4916990;29;20226;-80
2022/09/19 00:27:11;;;;;;;6.80;2.50;;;9.30;99.90;;;;;;4916782;29;20246;-81
2022/09/19 00:29:41;;;;;;;6.30;2.37;;;9.30;99.90;;;;;;4917271;29;20682;-81
2022/09/19 00:32:13;;;;;;;4.80;2.20;;;9.20;99.90;;;;;;4916978;29;20611;-81
2022/09/19 00:34:47;;;;;;;4.93;2.40;;;9.20;99.90;;;;;;4917022;29;20218;-80
2022/09/19 00:37:19;;;;;;;7.00;2.77;;;9.20;99.90;;;;;;4916837;29;20209;-83
2022/09/19 00:39:46;;;;;;;8.30;3.00;;;9.10;99.90;;;;;;4918150;29;20278;-84
2022/09/19 00:42:23;;;;;;;7.17;2.60;;;9.20;99.90;;;;;;4916838;29;20243;-84
2022/09/19 00:44:58;;;;;;;5.70;2.50;;;8.90;99.90;;;;;;4924306;23;20261;-84
2022/09/19 00:47:39;;;;;;;9.83;3.10;;;8.90;99.90;;;;;;4917640;29;20561;-83
2022/09/19 00:50:13;;;;;;;8.40;2.77;;;8.90;99.90;;;;;;4947390;23;20241;-83
2022/09/19 00:52:49;;;;;;;7.87;2.73;;;8.90;99.90;;;;;;4904183;29;20202;-83
2022/09/19 00:55:25;;;;;;;6.93;2.77;;;8.90;99.90;;;;;;4936897;29;20194;-84
2022/09/19 00:58:05;;;;;;;7.90;3.10;;;8.90;99.90;;;;;;4919913;29;20213;-84
2022/09/19 01:00:59;;;;;;;7.07;2.93;;;8.90;99.90;;;;;;4868731;29;20210;-84
2022/09/19 01:03:45;;;;;;;5.40;2.63;;;9.00;99.90;;;;;;4938098;23;20241;-83
2022/09/19 01:06:58;;;;;;;7.00;3.10;;;9.10;99.90;;;;;;4919400;29;20225;-84
2022/09/19 01:09:54;;;;;;;6.30;2.53;;;8.70;99.90;;;;;;4916404;29;20216;-85
2022/09/19 01:12:55;;;;;;;10.27;3.17;;;8.70;99.90;;;;;;4919265;29;20652;-82
2022/09/19 01:15:39;;;;;;;5.53;2.73;;;8.80;99.90;;;;;;4919329;29;20652;-81
2022/09/19 01:18:08;;;;;;;5.27;2.80;;;8.70;99.90;;;;;;4936405;29;20209;-83
2022/09/19 01:24:05;;;;;;;7.57;2.90;;;8.60;99.90;;;;;;4840835;29;20260;-84
2022/09/19 01:27:14;;;;;;;5.03;3.00;;;8.60;99.90;;;;;;4825620;29;20213;-83
2022/09/19 01:32:24;;;;;;;10.20;3.80;;;8.50;99.90;;;;;;4558139;26;20225;-85
2022/09/19 01:35:00;;;;;;;9.20;3.47;;;8.40;99.90;;;;;;4921930;29;20265;-85
2022/09/19 01:38:23;;;;;;;11.17;3.57;;;8.40;99.90;;;;;;4924911;29;20288;-85
2022/09/19 01:40:52;;;;;;;9.97;3.53;;;8.30;99.90;;;;;;4937882;29;20213;-85
2022/09/19 01:43:42;;;;;;;7.83;3.40;;;8.20;99.90;;;;;;4916227;29;20233;-85
2022/09/19 01:46:35;;;;;;;12.53;3.57;;;8.10;99.90;;;;;;4937841;29;20645;-86
2022/09/19 01:49:42;;;;;;;5.87;3.17;;;8.10;99.90;;;;;;4937088;29;20288;-86
2022/09/19 01:52:49;;;;;;;6.07;2.97;;;8.10;99.90;;;;;;4954593;28;20209;-85
2022/09/19 01:55:28;;;;;;;10.37;3.40;;;8.10;99.90;;;;;;4937894;29;20199;-84
2022/09/19 01:59:02;;;;;;;8.37;3.30;;;8.10;99.90;;;;;;4935879;29;20201;-81
2022/09/19 02:04:44;;;;;;;9.80;3.50;;;8.00;99.90;;;;;;4940213;23;20699;-85
2022/09/19 02:07:55;;;;;;;6.97;3.20;;;7.90;99.90;;;;;;4810198;29;20229;-85
2022/09/19 02:10:29;;;;;;;7.63;3.60;;;7.90;99.90;;;;;;4790137;29;20213;-84
2022/09/19 02:12:59;;;;;;;6.57;3.33;;;7.90;99.90;;;;;;4839254;29;20210;-82
2022/09/19 02:15:29;;;;;;;7.13;2.97;;;7.80;99.90;;;;;;4825170;29;20717;-85
2022/09/19 02:18:22;;;;;;;7.13;3.37;;;7.90;99.90;;;;;;4825023;29;20208;-84
2022/09/19 02:20:58;;;;;;;7.27;3.10;;;7.90;99.90;;;;;;4840123;29;20208;-84
2022/09/19 02:23:28;;;;;;;9.20;3.50;;;7.80;99.90;;;;;;4824689;29;20210;-84
2022/09/19 02:25:58;;;;;;;7.83;3.33;;;7.80;99.90;;;;;;4839880;29;20665;-85
2022/09/19 02:28:33;;;;;;;7.40;3.17;;;7.70;99.90;;;;;;4839851;29;20201;-85
2022/09/19 02:31:01;;;;;;;7.27;3.43;;;7.80;99.90;;;;;;4824815;29;20265;-86
2022/09/19 02:33:27;;;;;;;8.33;3.50;;;7.70;99.90;;;;;;4824408;29;20619;-86
2022/09/19 02:36:05;;;;;;;8.03;2.97;;;7.70;99.90;;;;;;4839928;29;20208;-86
2022/09/19 02:39:12;;;;;;;8.67;3.70;;;7.70;99.90;;;;;;4885259;29;20210;-84
2022/09/19 02:42:02;;;;;;;7.20;3.47;;;7.60;99.90;;;;;;4839726;29;20205;-86
2022/09/19 02:45:20;;;;;;;7.13;3.47;;;7.60;99.90;;;;;;4824328;29;20262;-85
2022/09/19 02:47:55;;;;;;;7.63;3.23;;;7.50;99.90;;;;;;4824670;29;20212;-86
2022/09/19 02:50:29;;;;;;;7.07;3.80;;;7.50;99.90;;;;;;4839898;29;20559;-86
2022/09/19 02:53:00;;;;;;;9.30;4.20;;;7.60;99.90;;;;;;4824586;29;20219;-87
2022/09/19 02:55:31;;;;;;;7.30;3.67;;;7.50;99.90;;;;;;4824985;29;20221;-87
2022/09/19 02:58:03;;;;;;;9.90;3.67;;;7.50;99.90;;;;;;4824206;29;20217;-87
2022/09/19 03:00:32;;;;;;;7.90;3.90;;;7.50;99.90;;;;;;4839736;29;20684;-86
2022/09/19 03:06:28;;;;;;;7.33;3.60;;;7.50;99.90;;;;;;4839799;29;20232;-84
2022/09/19 03:08:56;;;;;;;8.13;3.60;;;7.40;99.90;;;;;;4839660;29;20597;-85
2022/09/19 03:11:27;;;;;;;8.23;3.93;;;7.40;99.90;;;;;;4839644;29;20209;-85
2022/09/19 03:14:10;;;;;;;7.43;3.83;;;7.40;99.90;;;;;;4824165;29;20211;-85
2022/09/19 03:16:41;;;;;;;9.33;3.73;;;7.40;99.90;;;;;;4855904;29;20297;-85
2022/09/19 03:19:09;;;;;;;8.60;3.90;;;7.50;99.90;;;;;;4898770;29;20212;-85
2022/09/19 03:21:51;;;;;;;6.70;4.23;;;7.40;99.90;;;;;;4954927;23;20241;-84
2022/09/19 03:24:18;;;;;;;10.73;4.20;;;7.40;99.90;;;;;;4956026;28;20224;-84
2022/09/19 03:26:47;;;;;;;10.70;4.07;;;7.40;99.90;;;;;;4940312;29;20213;-81
2022/09/19 03:29:18;;;;;;;8.27;3.90;;;7.50;99.90;;;;;;4924563;29;20193;-85
2022/09/19 03:31:52;;;;;;;7.17;3.97;;;7.50;99.90;;;;;;4945387;23;20197;-84
2022/09/19 03:34:20;;;;;;;9.73;4.90;;;7.60;99.90;;;;;;4921115;29;20200;-81
2022/09/19 03:36:56;;;;;;;8.90;4.27;;;7.50;99.90;;;;;;4921767;29;20235;-84
2022/09/19 03:39:23;;;;;;;10.43;4.43;;;7.50;99.90;;;;;;4921234;29;20208;-84
2022/09/19 03:41:54;;;;;;;14.07;5.17;;;7.50;99.90;;;;;;4905546;29;20305;-85
2022/09/19 03:44:30;;;;;;;8.53;4.50;;;7.50;99.90;;;;;;4937949;29;20243;-80
2022/09/19 03:47:00;;;;;;;8.50;4.43;;;7.60;99.90;;;;;;4921052;29;20212;-85
2022/09/19 03:49:28;;;;;;;8.77;4.57;;;7.50;99.90;;;;;;4921058;29;20208;-85
2022/09/19 03:52:36;;;;;;;7.37;4.50;;;7.50;99.90;;;;;;4881900;29;20665;-84
2022/09/19 03:55:04;;;;;;;10.97;4.70;;;7.60;99.90;;;;;;4885916;29;20255;-84
2022/09/19 03:57:31;;;;;;;10.13;5.03;;;7.50;99.90;;;;;;4920776;29;20199;-85
2022/09/19 03:59:58;;;;;;;10.80;4.70;;;7.70;99.90;;;;;;4920807;29;20337;-85
2022/09/19 04:02:31;;;;;;;10.47;5.40;;;7.60;99.90;;;;;;4937649;29;20197;-84
2022/09/19 04:04:57;;;;;;;12.60;5.27;;;7.50;99.90;;;;;;4920771;29;20239;-86
2022/09/19 04:07:30;;;;;;;11.50;5.30;;;7.70;99.90;;;;;;4920370;29;20590;-86
2022/09/19 04:10:12;;;;;;;9.43;4.67;;;7.60;99.90;;;;;;4937950;29;20555;-86
2022/09/19 04:12:42;;;;;;;11.13;5.20;;;7.70;99.90;;;;;;4920865;29;20205;-81
2022/09/19 04:15:29;;;;;;;10.33;4.90;;;7.70;99.90;;;;;;4936204;29;20208;-85
2022/09/19 04:18:20;;;;;;;10.73;4.90;;;7.70;99.90;;;;;;4935463;29;20214;-84
2022/09/19 04:21:41;;;;;;;9.07;4.90;;;7.70;99.90;;;;;;4957239;23;20230;-86
2022/09/19 04:24:31;;;;;;;9.80;5.13;;;7.70;99.90;;;;;;4898073;29;20245;-85
2022/09/19 04:27:08;;;;;;;12.70;6.60;;;7.70;99.90;;;;;;4898325;29;20203;-86
2022/09/19 04:29:36;;;;;;;8.77;5.97;;;7.60;99.90;;;;;;4938265;23;20703;-85
2022/09/19 04:32:03;;;;;;;13.37;7.23;;;7.60;99.90;;;;;;4918226;29;20265;-84
2022/09/19 04:34:35;;;;;;;11.67;6.90;;;7.60;99.90;;;;;;4917959;29;20186;-82
2022/09/19 04:37:10;;;;;;;12.70;6.90;;;7.60;99.90;;;;;;4916633;29;20205;-83
2022/09/19 04:39:37;;;;;;;12.80;7.47;;;7.60;99.90;;;;;;4938127;23;20237;-83
2022/09/19 04:42:10;;;;;;;10.33;7.03;;;7.60;99.90;;;;;;4936075;29;20544;-83
2022/09/19 04:44:46;;;;;;;13.37;8.80;;;7.50;99.90;;;;;;4936907;29;20229;-83
2022/09/19 04:47:14;;;;;;;16.60;8.63;;;7.50;99.90;;;;;;4935651;29;20208;-81
2022/09/19 04:49:41;;;;;;;15.97;8.43;;;7.50;99.90;;;;;;4959842;23;20674;-82
2022/09/19 04:52:13;;;;;;;15.47;8.30;;;7.50;99.90;;;;;;4916481;29;20196;-81
2022/09/19 04:54:41;;;;;;;14.77;8.23;;;7.50;99.90;;;;;;4916487;29;20557;-82
2022/09/19 04:57:09;;;;;;;13.37;8.80;;;7.50;99.90;;;;;;4914286;29;20309;-82
2022/09/19 04:59:36;;;;;;;15.97;9.20;;;7.50;99.90;;;;;;4898797;29;20202;-82
2022/09/19 05:02:12;;;;;;;12.40;8.13;;;7.50;99.90;;;;;;4902711;29;20220;-86
2022/09/19 05:04:41;;;;;;;16.47;8.00;;;7.40;99.90;;;;;;4916555;29;20240;-84
2022/09/19 05:07:13;;;;;;;15.30;8.17;;;7.60;99.90;;;;;;4897680;29;20217;-86
2022/09/19 05:09:42;;;;;;;15.30;7.77;;;7.50;99.90;;;;;;4882150;29;20219;-83
2022/09/19 05:12:09;;;;;;;16.00;8.20;;;7.50;99.90;;;;;;4897934;29;20559;-82
2022/09/19 05:14:43;;;;;;;13.10;8.00;;;7.50;99.90;;;;;;4897215;29;20210;-86
2022/09/19 05:17:09;;;;;;;15.23;8.67;;;7.40;99.90;;;;;;4915583;23;20244;-83
2022/09/19 05:19:36;;;;;;;14.27;8.10;;;7.40;99.90;;;;;;4916168;29;20203;-80
2022/09/19 05:22:03;;;;;;;15.47;9.17;;;7.40;99.90;;;;;;4916163;29;20211;-82
2022/09/19 05:24:30;;;;;;;14.87;8.97;;;7.50;99.90;;;;;;4915810;29;20238;-84
2022/09/19 05:26:58;;;;;;;17.00;9.17;;;7.50;99.90;;;;;;4915916;29;20220;-82
2022/09/19 05:29:25;;;;;;;17.73;9.53;;;7.40;99.90;;;;;;4916125;29;20210;-83
2022/09/19 05:31:54;;;;;;;17.00;9.73;;;7.50;99.90;;;;;;4913637;29;20213;-81
2022/09/19 05:34:22;;;;;;;14.53;9.17;;;7.60;99.90;;;;;;4924301;29;20555;-76
2022/09/19 05:36:51;;;;;;;17.27;9.63;;;7.60;99.90;;;;;;4912931;29;20258;-85
2022/09/19 05:39:18;;;;;;;16.10;9.40;;;7.70;99.90;;;;;;4901752;29;20225;-79
2022/09/19 05:41:47;;;;;;;16.70;10.27;;;7.70;99.90;;;;;;4916826;29;20206;-78
2022/09/19 05:44:16;;;;;;;15.07;8.97;;;7.70;99.90;;;;;;4917014;29;20212;-82
2022/09/19 05:46:43;;;;;;;20.07;9.33;;;7.70;99.90;;;;;;4916737;29;20210;-76
2022/09/19 05:49:10;;;;;;;20.70;9.20;;;7.80;99.90;;;;;;4899611;29;20201;-75
2022/09/19 05:51:37;;;;;;;14.93;8.90;;;7.80;99.90;;;;;;4931824;29;20206;-76
2022/09/19 05:54:04;;;;;;;14.27;8.53;;;7.90;99.90;;;;;;4915699;29;20645;-73
2022/09/19 05:56:31;;;;;;;13.43;8.43;;;7.90;99.90;;;;;;4915385;29;20566;-75
2022/09/19 05:58:58;;;;;;;12.80;7.63;;;7.90;99.90;;;;;;4915445;29;20543;-75
2022/09/19 06:01:25;;;;;;;12.77;7.50;;;8.00;99.90;;;;;;4915407;29;20222;-76
2022/09/19 06:03:55;;;;;;;13.43;7.60;;;8.10;99.90;;;;;;4915501;29;20203;-75
2022/09/19 06:06:22;;;;;;;12.03;7.27;;;8.20;99.90;;;;;;4903517;29;20239;-75
2022/09/19 06:08:58;;;;;;;11.70;8.10;;;8.20;99.90;;;;;;4912394;29;20207;-75
2022/09/19 06:11:25;;;;;;;12.03;8.13;;;8.10;99.90;;;;;;4896373;29;20208;-74
2022/09/19 06:16:37;;;;;;;13.93;7.83;;;8.20;99.90;;;;;;4895986;29;20559;-74
2022/09/19 06:19:06;;;;;;;13.93;8.50;;;8.20;99.90;;;;;;4896480;29;20306;-74
2022/09/19 06:21:33;;;;;;;14.90;9.10;;;8.20;99.90;;;;;;4896505;29;20204;-74
2022/09/19 06:24:01;;;;;;;13.97;9.00;;;8.20;99.90;;;;;;4896576;29;20205;-81
2022/09/19 06:26:28;;;;;;;15.53;9.57;;;8.20;99.90;;;;;;4879088;29;21254;-82
2022/09/19 06:28:55;;;;;;;13.33;9.07;;;8.30;99.90;;;;;;4885615;29;20204;-75
2022/09/19 06:31:22;;;;;;;14.07;9.43;;;8.50;99.90;;;;;;4878903;29;20279;-80
2022/09/19 06:33:49;;;;;;;17.13;9.33;;;8.50;99.90;;;;;;4877601;29;20236;-80
2022/09/19 06:36:16;;;;;;;12.53;8.80;;;8.60;99.90;;;;;;4899924;29;20587;-78
2022/09/19 06:38:43;;;;;;;13.63;8.77;;;8.60;99.90;;;;;;4896200;29;20604;-79
2022/09/19 06:41:11;;;;;;;14.10;9.50;;;8.90;99.90;;;;;;4910991;29;20733;-80
2022/09/19 06:43:38;;;;;;;14.13;9.20;;;9.00;99.90;;;;;;4907183;29;20606;-84
2022/09/19 06:46:05;;;;;;;14.20;9.43;;;9.00;99.90;;;;;;4893102;29;20232;-82
2022/09/19 06:48:34;;;;;;;15.27;9.60;;;8.90;99.90;;;;;;4910656;29;20239;-78
2022/09/19 06:51:02;;;;;;;16.43;9.73;;;9.00;99.90;;;;;;4897474;29;20184;-75
2022/09/19 06:53:30;;;;;;;18.00;9.70;;;9.00;99.90;;;;;;4894972;29;20204;-78
2022/09/19 06:55:56;;;;;;;18.93;10.20;;;9.00;99.90;;;;;;4910973;29;20197;-76
2022/09/19 06:58:25;;;;;;;15.80;9.73;;;8.80;99.90;;;;;;4896906;29;20230;-78
2022/09/19 07:01:05;;;;;;;16.03;9.60;;;8.80;99.90;;;;;;4899398;29;20231;-83
2022/09/19 07:03:34;;;;;;;14.20;10.20;;;8.90;99.90;;;;;;4900874;29;20563;-77
2022/09/19 07:06:01;;;;;;;15.87;9.33;;;8.90;99.90;;;;;;4908525;29;20322;-83
2022/09/19 07:08:28;;;;;;;15.43;9.87;;;8.90;99.90;;;;;;4897185;29;20197;-81
2022/09/19 07:10:56;;;;;;;13.73;9.67;;;8.90;99.90;;;;;;4895485;29;20230;-79
2022/09/19 07:13:27;;;;;;;14.60;9.97;;;9.00;99.90;;;;;;4897951;29;20283;-80
2022/09/19 07:16:02;;;;;;;17.07;9.93;;;9.10;99.90;;;;;;4898888;29;20255;-75
2022/09/19 07:18:30;;;;;;;17.53;10.30;;;9.00;99.90;;;;;;4896316;29;20205;-75
2022/09/19 07:21:00;;;;;;;13.53;9.57;;;9.10;99.90;;;;;;4899203;29;20207;-76
2022/09/19 07:23:27;;;;;;;16.20;10.30;;;9.00;99.90;;;;;;4900551;29;20210;-75
2022/09/19 07:25:55;;;;;;;14.13;9.23;;;9.10;99.90;;;;;;4914246;29;20228;-74
2022/09/19 07:28:23;;;;;;;16.70;9.87;;;9.20;99.90;;;;;;4894289;29;20256;-77
2022/09/19 07:30:52;;;;;;;15.50;9.70;;;9.00;99.90;;;;;;4895390;29;20746;-74
2022/09/19 07:33:21;;;;;;;15.80;11.10;;;9.00;99.90;;;;;;4880247;29;20216;-79
2022/09/19 07:35:48;;;;;;;15.40;10.37;;;9.10;99.90;;;;;;4887146;29;20247;-82
2022/09/19 07:38:19;;;;;;;16.20;9.57;;;9.10;99.90;;;;;;4899422;29;20211;-76
2022/09/19 07:40:46;;;;;;;14.77;9.60;;;9.20;99.90;;;;;;4900195;29;20290;-77
2022/09/19 07:43:16;;;;;;;16.23;9.97;;;9.30;99.90;;;;;;4894712;29;20189;-83
2022/09/19 07:45:45;;;;;;;15.57;9.40;;;9.20;99.90;;;;;;4897788;29;20233;-76
2022/09/19 07:48:16;;;;;;;13.70;9.07;;;9.20;99.90;;;;;;4898926;29;20208;-77
2022/09/19 07:50:44;;;;;;;17.60;9.87;;;9.30;99.90;;;;;;4898047;29;20202;-76
2022/09/19 07:53:23;;;;;;;14.07;9.33;;;9.40;99.90;;;;;;4900148;29;20191;-74
2022/09/19 07:55:55;;;;;;;13.57;9.50;;;9.40;99.90;;;;;;4898114;29;20203;-74
2022/09/19 07:58:24;;;;;;;13.07;9.30;;;9.50;99.90;;;;;;4897406;29;20203;-75
2022/09/19 08:00:52;;;;;;;17.37;9.50;;;9.40;99.90;;;;;;4892020;29;20215;-74
2022/09/19 08:03:20;;;;;;;11.60;8.60;;;9.20;99.90;;;;;;4897914;29;20211;-73
2022/09/19 08:05:50;;;;;;;11.70;8.87;;;9.30;99.90;;;;;;4898007;29;20272;-88
2022/09/19 08:08:19;;;;;;;13.57;9.23;;;9.30;99.90;;;;;;4898720;29;20203;-88
2022/09/19 08:10:46;;;;;;;14.77;8.70;;;9.20;99.90;;;;;;4899158;29;20289;-81
2022/09/19 08:13:15;;;;;;;12.73;8.00;;;9.30;99.90;;;;;;4898319;29;20552;-72
2022/09/19 08:15:44;;;;;;;11.80;8.17;;;9.30;99.90;;;;;;4894494;29;20205;-87
2022/09/19 08:18:14;;;;;;;11.50;8.67;;;9.40;99.90;;;;;;4880502;29;20294;-77
2022/09/19 08:20:45;;;;;;;10.87;8.37;;;9.40;99.90;;;;;;4896800;29;20197;-76
2022/09/19 08:23:14;;;;;;;11.10;8.10;;;9.30;99.90;;;;;;4897475;29;20195;-75
2022/09/19 08:25:46;;;;;;;11.70;8.17;;;9.50;99.90;;;;;;4911542;29;20595;-76
2022/09/19 08:28:18;;;;;;;12.83;7.87;;;9.50;99.90;;;;;;4903270;29;20232;-75
2022/09/19 08:30:47;;;;;;;10.63;7.60;;;9.40;99.90;;;;;;4929389;23;20245;-79
2022/09/19 08:33:14;;;;;;;11.20;8.23;;;9.30;99.90;;;;;;4924970;29;20218;-80
2022/09/19 08:35:41;;;;;;;14.90;8.87;;;9.20;99.90;;;;;;4923800;29;20580;-77
2022/09/19 08:38:11;;;;;;;11.27;8.47;;;9.10;99.90;;;;;;4929211;29;20229;-81
2022/09/19 08:40:43;;;;;;;12.20;8.90;;;9.00;99.90;;;;;;4935271;29;20545;-81
2022/09/19 08:43:21;;;;;;;12.83;8.90;;;8.80;99.90;;;;;;4923445;29;20535;-79
2022/09/19 08:46:11;;;;;;;12.47;9.03;;;8.80;99.90;;;;;;4924766;29;20223;-74
2022/09/19 08:49:19;;;;;;;14.17;9.63;;;8.90;99.90;;;;;;4920289;29;20810;-74
2022/09/19 08:52:05;;;;;;;17.27;9.30;;;8.90;99.90;;;;;;4864725;29;20196;-73
2022/09/19 08:54:34;;;;;;;11.00;8.50;;;9.00;99.90;;;;;;4844876;29;20687;-77
2022/09/19 08:57:01;;;;;;;14.80;9.83;;;9.00;99.90;;;;;;4854996;29;20260;-73
2022/09/19 08:59:39;;;;;;;14.73;9.03;;;9.00;99.90;;;;;;4877157;29;20230;-77
2022/09/19 09:02:21;;;;;;;12.83;8.77;;;9.10;99.90;;;;;;4868845;29;20211;-76
2022/09/19 09:04:50;;;;;;;11.97;8.17;;;9.10;99.90;;;;;;4867251;29;20364;-77
2022/09/19 09:07:20;;;;;;;13.63;8.90;;;9.00;99.90;;;;;;4837993;29;20416;-79
2022/09/19 09:10:07;;;;;;;15.50;9.60;;;9.00;99.90;;;;;;4840524;29;20204;-75
2022/09/19 09:12:58;;;;;;;14.10;9.33;;;8.90;99.90;;;;;;4840138;29;20204;-75
2022/09/19 09:15:52;;;;;;;13.83;9.43;;;9.10;99.90;;;;;;4857763;29;20213;-73
2022/09/19 09:18:44;;;;;;;30.57;10.67;;;9.10;99.90;;;;;;4835303;29;20587;-81
2022/09/19 09:21:23;;;;;;;16.90;9.50;;;9.20;99.90;;;;;;4831996;29;20323;-81
2022/09/19 09:23:57;;;;;;;14.70;9.40;;;9.10;99.90;;;;;;4832441;29;20202;-76
2022/09/19 09:26:45;;;;;;;16.73;10.17;;;9.20;99.90;;;;;;4903071;29;20303;-75
2022/09/19 09:29:30;;;;;;;14.70;9.67;;;9.30;99.90;;;;;;4910861;29;20245;-76
2022/09/19 09:32:00;;;;;;;16.87;10.37;;;9.30;99.90;;;;;;4911282;29;20984;-75
2022/09/19 09:34:35;;;;;;;13.53;10.50;;;9.20;99.90;;;;;;4916881;29;20581;-76
2022/09/19 09:37:14;;;;;;;19.10;11.33;;;9.20;99.90;;;;;;4917918;29;20194;-79
2022/09/19 09:40:08;;;;;;;17.00;11.20;;;9.10;99.90;;;;;;4913459;29;20221;-76
2022/09/19 09:43:05;;;;;;;16.40;10.93;;;9.10;99.90;;;;;;4916508;29;20561;-75
2022/09/19 09:45:42;;;;;;;17.07;11.33;;;9.20;99.90;;;;;;4915263;29;20226;-75
2022/09/19 09:48:21;;;;;;;18.00;12.13;;;9.20;99.90;;;;;;4918058;29;20199;-76
2022/09/19 09:51:00;;;;;;;17.70;12.00;;;9.30;99.90;;;;;;4911277;29;20199;-76
2022/09/19 09:53:59;;;;;;;18.90;12.60;;;9.40;99.90;;;;;;4905905;29;20199;-76
2022/09/19 09:56:46;;;;;;;19.20;12.63;;;9.50;99.90;;;;;;4908570;29;20221;-72
2022/09/19 10:05:51;;;;;;;14.30;10.40;;;9.50;99.90;;;;;;4910809;29;20274;-72
2022/09/19 10:08:27;;;;;;;15.83;11.13;;;9.50;99.90;;;;;;4904901;29;20215;-74
2022/09/19 10:11:24;;;;;;;14.47;10.13;;;9.50;99.90;;;;;;4912060;29;20202;-75
2022/09/19 10:14:31;;;;;;;15.00;9.53;;;9.60;99.90;;;;;;4916657;29;20238;-74
2022/09/19 10:17:01;;;;;;;15.20;10.20;;;9.60;99.90;;;;;;4900991;29;20241;-73
2022/09/19 10:19:42;;;;;;;15.43;10.93;;;9.70;99.90;;;;;;4910401;29;20221;-74
2022/09/19 10:22:15;;;;;;;17.80;10.13;;;9.60;99.90;;;;;;4932965;29;20213;-71
2022/09/19 10:24:54;;;;;;;14.60;9.60;;;9.70;99.90;;;;;;4909792;29;20202;-74
2022/09/19 10:27:25;;;;;;;14.87;8.70;;;9.80;99.90;;;;;;4905327;29;20230;-81
2022/09/19 10:30:24;;;;;;;14.87;9.00;;;10.00;99.90;;;;;;4914018;29;20275;-72
2022/09/19 10:32:54;;;;;;;12.93;8.43;;;10.00;99.90;;;;;;4914943;29;20670;-73
2022/09/19 10:35:33;;;;;;;16.80;8.43;;;10.00;99.90;;;;;;4914823;29;20226;-71
2022/09/19 10:38:16;;;;;;;11.17;7.83;;;10.10;99.90;;;;;;4908588;29;20196;-73
2022/09/19 10:40:57;;;;;;;14.03;7.70;;;10.10;99.90;;;;;;4912196;29;20552;-73
2022/09/19 10:43:43;;;;;;;10.00;6.40;;;10.10;99.90;;;;;;4912647;29;20705;-73
2022/09/19 10:46:17;;;;;;;8.77;6.20;;;10.10;99.90;;;;;;4905628;29;20211;-79
2022/09/19 10:48:56;;;;;;;8.40;5.57;;;10.00;99.90;;;;;;4894584;29;20616;-73
2022/09/19 10:51:35;;;;;;;12.03;5.93;;;10.10;99.90;;;;;;4912670;29;20214;-74
2022/09/19 10:54:27;;;;;;;7.90;5.67;;;10.10;99.90;;;;;;4916884;29;20202;-74
2022/09/19 10:56:58;;;;;;;8.90;5.80;;;10.00;99.90;;;;;;4909914;29;20657;-75
2022/09/19 10:59:39;;;;;;;8.53;6.37;;;10.10;99.90;;;;;;4913136;29;20192;-74
2022/09/19 11:02:09;;;;;;;8.40;5.77;;;10.00;99.90;;;;;;4904283;29;20333;-74
2022/09/19 11:04:37;;;;;;;10.23;6.40;;;10.00;99.90;;;;;;4906769;29;20227;-74
2022/09/19 11:07:16;;;;;;;9.97;5.90;;;10.00;99.90;;;;;;4911808;29;20677;-74
2022/09/19 11:09:45;;;;;;;10.17;6.10;;;10.10;99.90;;;;;;4908691;29;20199;-75
2022/09/19 11:12:15;;;;;;;10.27;6.00;;;10.30;99.90;;;;;;4917155;29;20343;-75
2022/09/19 11:14:43;;;;;;;7.93;5.70;;;10.40;99.90;;;;;;4918684;29;20661;-75
2022/09/19 11:17:31;;;;;;;9.33;5.60;;;10.40;99.90;;;;;;4918779;29;20654;-80
2022/09/19 11:20:23;;;;;;;8.60;5.80;;;10.30;99.90;;;;;;4918377;29;20207;-74
2022/09/19 11:23:19;;;;;;;8.67;5.20;;;10.40;99.90;;;;;;4905644;29;20564;-76
2022/09/19 11:26:04;;;;;;;8.37;5.10;;;10.50;99.90;;;;;;4911354;29;20192;-74
2022/09/19 11:28:36;;;;;;;7.43;4.90;;;10.50;99.90;;;;;;4904169;29;20204;-73
2022/09/19 11:31:27;;;;;;;7.87;4.60;;;10.60;99.90;;;;;;4909811;29;20247;-73
2022/09/19 11:34:49;;;;;;;7.87;4.10;;;10.50;99.90;;;;;;4915828;29;20255;-75
2022/09/19 11:37:47;;;;;;;6.23;4.10;;;10.70;99.90;;;;;;4918245;29;20546;-79
2022/09/19 11:40:31;;;;;;;8.83;4.97;;;10.70;99.90;;;;;;4899191;29;20203;-75
2022/09/19 11:43:12;;;;;;;8.07;4.30;;;10.50;99.90;;;;;;4910728;29;20199;-73
2022/09/19 11:46:10;;;;;;;6.83;4.10;;;10.40;99.90;;;;;;4907647;29;20260;-75
2022/09/19 11:48:55;;;;;;;14.87;4.53;;;10.30;99.90;;;;;;4906735;29;20223;-75
2022/09/19 11:51:59;;;;;;;8.27;4.33;;;10.30;99.90;;;;;;4909204;29;20210;-75
2022/09/19 11:54:34;;;;;;;6.33;4.17;;;10.40;99.90;;;;;;4900236;29;20194;-74
2022/09/19 11:57:41;;;;;;;6.63;3.83;;;10.50;99.90;;;;;;4906525;29;20200;-78
2022/09/19 12:00:20;;;;;;;7.27;3.60;;;10.60;99.90;;;;;;4835367;29;20625;-74
2022/09/19 12:03:14;;;;;;;5.33;3.93;;;10.60;99.90;;;;;;4835737;29;20634;-74
2022/09/19 12:06:20;;;;;;;5.40;3.67;;;10.60;99.90;;;;;;4836823;29;20210;-76
2022/09/19 12:09:02;;;;;;;7.53;3.90;;;10.60;99.90;;;;;;4817580;29;20207;-75
2022/09/19 12:11:51;;;;;;;5.30;3.60;;;10.50;99.90;;;;;;4801934;29;20660;-81
2022/09/19 12:14:26;;;;;;;5.17;3.67;;;10.60;99.90;;;;;;4802733;29;20207;-85
2022/09/19 12:17:09;;;;;;;5.07;3.80;;;10.60;99.90;;;;;;4823328;29;20220;-85
2022/09/19 12:19:49;;;;;;;7.33;4.03;;;10.60;99.90;;;;;;4822328;29;20211;-74
2022/09/19 12:22:21;;;;;;;6.23;4.40;;;10.60;99.90;;;;;;4803019;29;20218;-76
2022/09/19 12:25:22;;;;;;;6.37;4.27;;;10.60;99.90;;;;;;4790604;29;20671;-74
2022/09/19 12:28:15;;;;;;;6.33;3.97;;;10.70;99.90;;;;;;5085362;27;20556;-84
2022/09/19 12:30:46;;;;;;;7.33;4.27;;;10.80;99.90;;;;;;5084592;28;20200;-76
2022/09/19 12:33:22;;;;;;;6.90;4.47;;;10.70;99.90;;;;;;5071561;28;20190;-74
2022/09/19 12:36:04;;;;;;;5.80;3.97;;;10.70;99.90;;;;;;5085254;28;20204;-74
2022/09/19 12:38:46;;;;;;;8.50;4.60;;;10.70;99.90;;;;;;5102603;28;20194;-77
2022/09/19 12:41:42;;;;;;;7.07;4.20;;;10.70;99.90;;;;;;5081903;28;20189;-74
2022/09/19 12:44:21;;;;;;;8.87;4.20;;;10.80;99.90;;;;;;5086139;28;20677;-75
2022/09/19 12:46:57;;;;;;;5.70;4.30;;;10.80;99.90;;;;;;5085743;28;20220;-75
2022/09/19 12:49:46;;;;;;;6.33;3.90;;;10.80;99.90;;;;;;5104707;28;20531;-78
2022/09/19 12:52:23;;;;;;;5.73;3.47;;;10.90;99.90;;;;;;5089431;28;20193;-75
2022/09/19 12:55:16;;;;;;;5.80;3.40;;;10.90;99.90;;;;;;5071780;28;20201;-74
2022/09/19 12:57:57;;;;;;;6.17;3.40;;;10.60;99.90;;;;;;5086713;28;20220;-75
2022/09/19 13:00:24;;;;;;;5.77;3.63;;;10.80;99.90;;;;;;5086689;28;20573;-83
2022/09/19 13:03:08;;;;;;;4.63;2.97;;;10.80;99.90;;;;;;5087024;28;20212;-85
2022/09/19 13:05:40;;;;;;;5.47;3.33;;;10.80;99.90;;;;;;5088530;28;20190;-75
2022/09/19 13:08:25;;;;;;;4.67;3.37;;;10.60;99.90;;;;;;5087715;28;20226;-74
2022/09/19 13:11:13;;;;;;;7.10;3.53;;;10.60;99.90;;;;;;5088078;28;20251;-75
2022/09/19 13:13:53;;;;;;;6.80;3.77;;;10.80;99.90;;;;;;5087833;28;20224;-74
2022/09/19 13:16:28;;;;;;;6.70;3.80;;;10.90;99.90;;;;;;5087625;28;20541;-74
2022/09/19 13:24:44;;;;;;;6.77;3.80;;;10.60;99.90;;;;;;5086573;28;20208;-80
2022/09/19 13:27:13;;;;;;;6.37;3.93;;;10.40;99.90;;;;;;5084884;28;20225;-79
2022/09/19 13:29:45;;;;;;;5.50;3.87;;;10.50;99.90;;;;;;5086172;28;20234;-74
2022/09/19 13:32:34;;;;;;;8.23;4.13;;;10.60;99.90;;;;;;5085143;28;20239;-77
2022/09/19 13:35:14;;;;;;;5.03;3.10;;;10.60;99.90;;;;;;5086430;28;20208;-73
2022/09/19 13:37:43;;;;;;;13.30;3.90;;;10.50;99.90;;;;;;5083522;28;20216;-74
2022/09/19 13:40:38;;;;;;;6.53;2.90;;;10.50;99.90;;;;;;5071238;28;20670;-74
2022/09/19 13:43:32;;;;;;;5.47;2.60;;;10.40;99.90;;;;;;5071521;28;20182;-73
2022/09/19 13:46:15;;;;;;;5.90;2.40;;;10.50;99.90;;;;;;5073981;28;20202;-74
2022/09/19 13:49:05;;;;;;;5.03;2.67;;;10.60;99.90;;;;;;5072209;28;20643;-76
2022/09/19 13:51:42;;;;;;;3.47;2.47;;;10.50;99.90;;;;;;5072070;28;20664;-76
2022/09/19 13:54:19;;;;;;;5.07;2.80;;;10.40;99.90;;;;;;5070939;28;20189;-74
2022/09/19 13:57:20;;;;;;;4.77;2.97;;;10.50;99.90;;;;;;5072042;28;20224;-74
2022/09/19 13:59:59;;;;;;;3.77;2.57;;;10.40;99.90;;;;;;5053241;28;20586;-85
2022/09/19 14:02:40;;;;;;;3.57;2.60;;;10.40;99.90;;;;;;5076626;28;20194;-79
2022/09/19 14:05:19;;;;;;;5.20;2.70;;;10.30;99.90;;;;;;5075369;28;20210;-76
2022/09/19 14:07:52;;;;;;;3.90;2.57;;;10.40;99.90;;;;;;5074043;28;20616;-80
2022/09/19 14:10:45;;;;;;;4.30;2.70;;;10.40;99.90;;;;;;5060676;28;20719;-75